Dades meteomassalio
Diari Summary for Marc 1, 2018 Units:  Both    English   Metric
« Previous Day
Next Day »
Diari Semanal Mensual Anual Personalitzat
  Maxima: Minima: Mijana:
Temperatura: TemperatureC °F /  -17.8 °C 7.4 °F /  -13.7 °C 11.7 °F /  -11.3 °C
Rosada: DewpointC °F /  -17.8 °C 3.4 °F /  -15.9 °C 7.5 °F /  -13.6 °C
Humitat: Humidity % 54 % 76 %
Velocitat del vent: WindSpeedKMH mph /  0 km/h - 11.9 mph /  19.2 km/h
Racha vent: WindSpeedGustKMH mph /  0 km/h - -
Vent:- - SW
Pressio: PressurehPa in /  0 hPa 987.7 in /  33443.5 hPa -
Pluja: 0.0 in /  0 mm    
Historical Graphs
 
 
Tabular Data for Marc 1, 2018
Time Temperature Dew Point Pressure Wind Wind Speed Wind Gust Humidity Rainfall Rate (Hourly) solar Conditions
TemperatureC °F /  -17.8 °C DewpointC °F /  -17.8 °C PressurehPa in /  0 hPa Calm     Humidity % HourlyPrecipMM in /  0 mm SolarRadiationWatts/m^2 W/m2 Conditions
00:03 8.7 °F /  -12.9 °C 6.5 °F /  -14.2 °C 996.8 in /  33751.6 hPa Calm     86 % 0.0 in /  0 mm 0.0 W/m2 RA
00:08 8.7 °F /  -12.9 °C 6.6 °F /  -14.1 °C 997.2 in /  33765.2 hPa Calm     87 % 0.0 in /  0 mm 0.0 W/m2 CLR
00:13 8.6 °F /  -13 °C 6.6 °F /  -14.1 °C 997.2 in /  33765.2 hPa Calm     87 % 0.0 in /  0 mm 0.0 W/m2 CLR
00:18 8.6 °F /  -13 °C 6.5 °F /  -14.2 °C 997.2 in /  33765.2 hPa Calm     87 % 0.0 in /  0 mm 0.0 W/m2 CLR
00:23 8.6 °F /  -13 °C 6.5 °F /  -14.2 °C 997.2 in /  33765.2 hPa Calm     87 % 0.0 in /  0 mm 0.0 W/m2 CLR
00:28 8.4 °F /  -13.1 °C 6.4 °F /  -14.2 °C 997.2 in /  33765.2 hPa Calm     87 % 0.0 in /  0 mm 0.0 W/m2 CLR
00:33 8.5 °F /  -13.1 °C 6.6 °F /  -14.1 °C 997.2 in /  33765.2 hPa Calm     88 % 0.0 in /  0 mm 0.0 W/m2 CLR
00:38 8.7 °F /  -12.9 °C 6.8 °F /  -14 °C 996.8 in /  33751.6 hPa Calm     88 % 0.0 in /  0 mm 0.0 W/m2 CLR
00:43 9.3 °F /  -12.6 °C 7.3 °F /  -13.7 °C 996.8 in /  33751.6 hPa Calm     87 % 0.0 in /  0 mm 0.0 W/m2 CLR
00:48 9.8 °F /  -12.3 °C 7.6 °F /  -13.6 °C 996.8 in /  33751.6 hPa Calm     86 % 0.0 in /  0 mm 0.0 W/m2 CLR
00:53 10.3 °F /  -12.1 °C 7.7 °F /  -13.5 °C 996.8 in /  33751.6 hPa Calm     84 % 0.0 in /  0 mm 0.0 W/m2 CLR
00:58 10.5 °F /  -11.9 °C 7.6 °F /  -13.6 °C 996.8 in /  33751.6 hPa Calm     82 % 0.0 in /  0 mm 0.0 W/m2 CLR
01:03 10.9 °F /  -11.7 °C 7.8 °F /  -13.4 °C 996.8 in /  33751.6 hPa Calm     81 % 0.0 in /  0 mm 0.0 W/m2 CLR
01:08 11.2 °F /  -11.6 °C 7.7 °F /  -13.5 °C 996.8 in /  33751.6 hPa Calm     79 % 0.0 in /  0 mm 0.0 W/m2 CLR
01:13 11.4 °F /  -11.4 °C 7.9 °F /  -13.4 °C 996.8 in /  33751.6 hPa Calm     79 % 0.0 in /  0 mm 0.0 W/m2 CLR
01:18 11.3 °F /  -11.5 °C 7.4 °F /  -13.7 °C 996.8 in /  33751.6 hPa Calm     77 % 0.0 in /  0 mm 0.0 W/m2 CLR
01:23 11.0 °F /  -11.7 °C 7.5 °F /  -13.6 °C 996.8 in /  33751.6 hPa Calm     79 % 0.0 in /  0 mm 0.0 W/m2 CLR
01:28 10.9 °F /  -11.7 °C 7.6 °F /  -13.6 °C 996.8 in /  33751.6 hPa Calm     80 % 0.0 in /  0 mm 0.0 W/m2 CLR
01:33 10.9 °F /  -11.7 °C 7.4 °F /  -13.7 °C 996.8 in /  33751.6 hPa Calm     79 % 0.0 in /  0 mm 0.0 W/m2 CLR
01:38 11.1 °F /  -11.6 °C 7.4 °F /  -13.7 °C 996.8 in /  33751.6 hPa SW 3.7 mph /  6 km/h 3.7 mph /  6 km/h 78 % 0.0 in /  0 mm 0.0 W/m2 CLR
01:43 10.7 °F /  -11.8 °C 7.2 °F /  -13.8 °C 996.5 in /  33741.5 hPa Calm     79 % 0.0 in /  0 mm 0.0 W/m2 CLR
01:48 10.6 °F /  -11.9 °C 7.2 °F /  -13.8 °C 996.8 in /  33751.6 hPa Calm     80 % 0.0 in /  0 mm 0.0 W/m2 CLR
01:53 10.6 °F /  -11.9 °C 7.3 °F /  -13.7 °C 996.8 in /  33751.6 hPa ENE 6.4 mph /  10.3 km/h 6.4 mph /  10.3 km/h 80 % 0.0 in /  0 mm 0.0 W/m2 CLR
01:58 9.9 °F /  -12.3 °C 6.7 °F /  -14.1 °C 996.8 in /  33751.6 hPa East 7.4 mph /  11.9 km/h   80 % 0.0 in /  0 mm 0.0 W/m2 CLR
02:03 9.6 °F /  -12.4 °C 6.6 °F /  -14.1 °C 996.8 in /  33751.6 hPa Calm     82 % 0.0 in /  0 mm 0.0 W/m2 CLR
02:08 9.2 °F /  -12.7 °C 6.7 °F /  -14.1 °C 996.8 in /  33751.6 hPa Calm     84 % 0.0 in /  0 mm 0.0 W/m2 CLR
02:13 9.0 °F /  -12.8 °C 6.6 °F /  -14.1 °C 997.2 in /  33765.2 hPa Calm     85 % 0.0 in /  0 mm 0.0 W/m2 CLR
02:18 9.0 °F /  -12.8 °C 6.8 °F /  -14 °C 996.8 in /  33751.6 hPa Calm     86 % 0.0 in /  0 mm 0.0 W/m2 CLR
02:23 8.9 °F /  -12.8 °C 6.7 °F /  -14.1 °C 996.8 in /  33751.6 hPa Calm     86 % 0.0 in /  0 mm 0.0 W/m2 CLR
02:28 8.9 °F /  -12.8 °C 6.7 °F /  -14.1 °C 996.8 in /  33751.6 hPa Calm     86 % 0.0 in /  0 mm 0.0 W/m2 CLR
02:33 8.7 °F /  -12.9 °C 6.5 °F /  -14.2 °C 996.8 in /  33751.6 hPa Calm     86 % 0.0 in /  0 mm 0.0 W/m2 CLR
02:38 8.8 °F /  -12.9 °C 6.8 °F /  -14 °C 996.8 in /  33751.6 hPa Calm     87 % 0.0 in /  0 mm 0.0 W/m2 CLR
02:43 9.2 °F /  -12.7 °C 7.1 °F /  -13.8 °C 996.8 in /  33751.6 hPa NNE 5.6 mph /  9 km/h 5.6 mph /  9 km/h 87 % 0.0 in /  0 mm 0.0 W/m2 CLR
02:48 9.4 °F /  -12.6 °C 7.1 °F /  -13.8 °C 996.8 in /  33751.6 hPa Calm     85 % 0.0 in /  0 mm 0.0 W/m2 CLR
02:53 9.3 °F /  -12.6 °C 6.9 °F /  -13.9 °C 996.8 in /  33751.6 hPa Calm     85 % 0.0 in /  0 mm 0.0 W/m2 CLR
02:58 9.1 °F /  -12.7 °C 6.7 °F /  -14.1 °C 996.8 in /  33751.6 hPa Calm     85 % 0.0 in /  0 mm 0.0 W/m2 CLR
03:03 8.9 °F /  -12.8 °C 6.6 °F /  -14.1 °C 996.5 in /  33741.5 hPa Calm     85 % 0.0 in /  0 mm 0.0 W/m2 CLR
03:08 8.7 °F /  -12.9 °C 6.4 °F /  -14.2 °C 996.5 in /  33741.5 hPa Calm     86 % 0.0 in /  0 mm 0.0 W/m2 CLR
03:13 8.7 °F /  -12.9 °C 6.6 °F /  -14.1 °C 996.5 in /  33741.5 hPa Calm     87 % 0.0 in /  0 mm 0.0 W/m2 CLR
03:18 8.7 °F /  -12.9 °C 6.6 °F /  -14.1 °C 996.8 in /  33751.6 hPa East 7.4 mph /  11.9 km/h 7.4 mph /  11.9 km/h 87 % 0.0 in /  0 mm 0.0 W/m2 CLR
03:23 8.4 °F /  -13.1 °C 6.3 °F /  -14.3 °C 996.8 in /  33751.6 hPa East 5.6 mph /  9 km/h 5.6 mph /  9 km/h 87 % 0.0 in /  0 mm 0.0 W/m2 CLR
03:28 8.3 °F /  -13.2 °C 6.4 °F /  -14.2 °C 996.5 in /  33741.5 hPa Calm     88 % 0.0 in /  0 mm 0.0 W/m2 CLR
03:33 8.4 °F /  -13.1 °C 6.7 °F /  -14.1 °C 996.5 in /  33741.5 hPa Calm     89 % 0.0 in /  0 mm 0.0 W/m2 CLR
03:38 8.6 °F /  -13 °C 6.7 °F /  -14.1 °C 996.5 in /  33741.5 hPa Calm     88 % 0.0 in /  0 mm 0.0 W/m2 CLR
03:43 8.8 °F /  -12.9 °C 6.9 °F /  -13.9 °C 996.5 in /  33741.5 hPa Calm     88 % 0.0 in /  0 mm 0.0 W/m2 CLR
03:48 9.1 °F /  -12.7 °C 7.1 °F /  -13.8 °C 996.5 in /  33741.5 hPa Calm     87 % 0.0 in /  0 mm 0.0 W/m2 CLR
03:53 9.2 °F /  -12.7 °C 7.0 °F /  -13.9 °C 996.2 in /  33731.3 hPa Calm     86 % 0.0 in /  0 mm 0.0 W/m2 CLR
03:58 9.4 °F /  -12.6 °C 7.2 °F /  -13.8 °C 996.2 in /  33731.3 hPa Calm     86 % 0.0 in /  0 mm 0.0 W/m2 CLR
03:59 9.4 °F /  -12.6 °C 7.2 °F /  -13.8 °C 996.2 in /  33731.3 hPa Calm     86 % 0.0 in /  0 mm 0.0 W/m2 CLR
04:04 9.6 °F /  -12.4 °C 7.2 °F /  -13.8 °C 996.5 in /  33741.5 hPa Calm     85 % 0.0 in /  0 mm 0.0 W/m2 CLR
04:09 9.5 °F /  -12.5 °C 7.1 °F /  -13.8 °C 996.2 in /  33731.3 hPa Calm   0.8 mph /  1.3 km/h 85 % 0.0 in /  0 mm 0.0 W/m2 CLR
04:14 9.4 °F /  -12.6 °C 7.1 °F /  -13.8 °C 996.2 in /  33731.3 hPa Calm     85 % 0.0 in /  0 mm 0.0 W/m2 CLR
04:19 9.3 °F /  -12.6 °C 6.9 °F /  -13.9 °C 996.2 in /  33731.3 hPa Calm     85 % 0.0 in /  0 mm 0.0 W/m2 CLR
04:24 9.3 °F /  -12.6 °C 6.9 °F /  -13.9 °C 996.2 in /  33731.3 hPa Calm     85 % 0.0 in /  0 mm 0.0 W/m2 CLR
04:29 9.4 °F /  -12.6 °C 7.0 °F /  -13.9 °C 996.2 in /  33731.3 hPa Calm     85 % 0.0 in /  0 mm 0.0 W/m2 CLR
04:34 9.4 °F /  -12.6 °C 7.0 °F /  -13.9 °C 996.2 in /  33731.3 hPa Calm     85 % 0.0 in /  0 mm 0.0 W/m2 CLR
04:39 9.3 °F /  -12.6 °C 6.9 °F /  -13.9 °C 996.2 in /  33731.3 hPa Calm     85 % 0.0 in /  0 mm 0.0 W/m2 CLR
04:44 9.3 °F /  -12.6 °C 6.9 °F /  -13.9 °C 996.2 in /  33731.3 hPa Calm     85 % 0.0 in /  0 mm 0.0 W/m2 CLR
04:49 9.3 °F /  -12.6 °C 6.9 °F /  -13.9 °C 996.2 in /  33731.3 hPa South 11.1 mph /  17.9 km/h 11.1 mph /  17.9 km/h 85 % 0.0 in /  0 mm 0.0 W/m2 CLR
04:54 9.2 °F /  -12.7 °C 6.8 °F /  -14 °C 996.2 in /  33731.3 hPa Calm     85 % 0.0 in /  0 mm 0.0 W/m2 CLR
04:59 9.1 °F /  -12.7 °C 6.7 °F /  -14.1 °C 996.2 in /  33731.3 hPa Calm     85 % 0.0 in /  0 mm 0.0 W/m2 CLR
05:04 9.0 °F /  -12.8 °C 6.8 °F /  -14 °C 996.2 in /  33731.3 hPa Calm     86 % 0.0 in /  0 mm 0.0 W/m2 CLR
05:09 9.0 °F /  -12.8 °C 6.8 °F /  -14 °C 996.2 in /  33731.3 hPa Calm     86 % 0.0 in /  0 mm 0.0 W/m2 CLR
05:14 9.1 °F /  -12.7 °C 6.8 °F /  -14 °C 996.2 in /  33731.3 hPa Calm     86 % 0.0 in /  0 mm 0.0 W/m2 CLR
05:20 9.1 °F /  -12.7 °C 6.9 °F /  -13.9 °C 996.2 in /  33731.3 hPa SSW 4.8 mph /  7.7 km/h 4.8 mph /  7.7 km/h 86 % 0.0 in /  0 mm 0.0 W/m2 CLR
05:25 9.2 °F /  -12.7 °C 7.0 °F /  -13.9 °C 995.8 in /  33717.8 hPa South 5.6 mph /  9 km/h 5.6 mph /  9 km/h 86 % 0.0 in /  0 mm 0.0 W/m2 CLR
05:30 9.3 °F /  -12.6 °C 7.1 °F /  -13.8 °C 995.8 in /  33717.8 hPa South 5.6 mph /  9 km/h 5.6 mph /  9 km/h 86 % 0.0 in /  0 mm 0.0 W/m2 CLR
05:35 9.2 °F /  -12.7 °C 7.0 °F /  -13.9 °C 995.8 in /  33717.8 hPa Calm     86 % 0.0 in /  0 mm 0.0 W/m2 CLR
05:40 9.2 °F /  -12.7 °C 6.8 °F /  -14 °C 995.8 in /  33717.8 hPa Calm     85 % 0.0 in /  0 mm 0.0 W/m2 CLR
05:45 9.2 °F /  -12.7 °C 6.8 °F /  -14 °C 995.8 in /  33717.8 hPa Calm     85 % 0.0 in /  0 mm 0.0 W/m2 CLR
05:50 9.1 °F /  -12.7 °C 6.7 °F /  -14.1 °C 995.8 in /  33717.8 hPa Calm     85 % 0.0 in /  0 mm 0.0 W/m2 CLR
05:55 9.1 °F /  -12.7 °C 6.7 °F /  -14.1 °C 995.8 in /  33717.8 hPa East 3.7 mph /  6 km/h   85 % 0.0 in /  0 mm 0.0 W/m2 CLR
06:00 8.9 °F /  -12.8 °C 6.7 °F /  -14.1 °C 995.8 in /  33717.8 hPa Calm     86 % 0.0 in /  0 mm 0.0 W/m2 CLR
06:05 8.9 °F /  -12.8 °C 6.7 °F /  -14.1 °C 995.8 in /  33717.8 hPa Calm     86 % 0.0 in /  0 mm 0.0 W/m2 CLR
06:10 8.8 °F /  -12.9 °C 6.4 °F /  -14.2 °C 995.8 in /  33717.8 hPa Calm     85 % 0.0 in /  0 mm 0.0 W/m2 CLR
06:15 8.6 °F /  -13 °C 6.3 °F /  -14.3 °C 995.5 in /  33707.6 hPa Calm     86 % 0.0 in /  0 mm 0.0 W/m2 CLR
06:20 8.3 °F /  -13.2 °C 6.3 °F /  -14.3 °C 995.8 in /  33717.8 hPa Calm     87 % 0.0 in /  0 mm 0.0 W/m2 CLR
06:25 8.2 °F /  -13.2 °C 6.1 °F /  -14.4 °C 995.8 in /  33717.8 hPa Calm     87 % 0.0 in /  0 mm 0.0 W/m2 CLR
06:30 8.0 °F /  -13.3 °C 6.1 °F /  -14.4 °C 995.8 in /  33717.8 hPa Calm     88 % 0.0 in /  0 mm 0.0 W/m2 CLR
06:35 8.1 °F /  -13.3 °C 6.3 °F /  -14.3 °C 995.8 in /  33717.8 hPa Calm     89 % 0.0 in /  0 mm 0.0 W/m2 CLR
06:40 8.1 °F /  -13.3 °C 6.4 °F /  -14.2 °C 995.8 in /  33717.8 hPa Calm     89 % 0.0 in /  0 mm 0.0 W/m2 CLR
06:45 8.1 °F /  -13.3 °C 6.2 °F /  -14.3 °C 995.8 in /  33717.8 hPa Calm     88 % 0.0 in /  0 mm 0.0 W/m2 CLR
06:50 8.1 °F /  -13.3 °C 6.2 °F /  -14.3 °C 995.5 in /  33707.6 hPa Calm     88 % 0.0 in /  0 mm 0.0 W/m2 CLR
06:55 8.1 °F /  -13.3 °C 6.2 °F /  -14.3 °C 995.5 in /  33707.6 hPa Calm     88 % 0.0 in /  0 mm 0.0 W/m2 CLR
07:00 8.1 °F /  -13.3 °C 6.3 °F /  -14.3 °C 995.5 in /  33707.6 hPa Calm     89 % 0.0 in /  0 mm 0.0 W/m2 CLR
07:05 8.1 °F /  -13.3 °C 6.3 °F /  -14.3 °C 995.5 in /  33707.6 hPa Calm     89 % 0.0 in /  0 mm 0.0 W/m2 CLR
07:10 8.0 °F /  -13.3 °C 6.3 °F /  -14.3 °C 995.1 in /  33694.1 hPa Calm     89 % 0.0 in /  0 mm 0.0 W/m2 CLR
07:15 8.1 °F /  -13.3 °C 6.3 °F /  -14.3 °C 995.1 in /  33694.1 hPa Calm     89 % 0.0 in /  0 mm 0.0 W/m2 CLR
07:20 8.0 °F /  -13.3 °C 6.3 °F /  -14.3 °C 995.1 in /  33694.1 hPa Calm     89 % 0.0 in /  0 mm 0.0 W/m2 CLR
07:25 7.9 °F /  -13.4 °C 6.2 °F /  -14.3 °C 995.1 in /  33694.1 hPa Calm     89 % 0.0 in /  0 mm 0.0 W/m2 OVC
07:30 7.9 °F /  -13.4 °C 6.2 °F /  -14.3 °C 995.1 in /  33694.1 hPa Calm     89 % 0.0 in /  0 mm 0.0 W/m2 OVC
07:35 7.8 °F /  -13.4 °C 6.1 °F /  -14.4 °C 995.1 in /  33694.1 hPa Calm     89 % 0.0 in /  0 mm 7.0 W/m2 OVC
07:40 7.8 °F /  -13.4 °C 6.1 °F /  -14.4 °C 995.1 in /  33694.1 hPa Calm     89 % 0.0 in /  0 mm 16.0 W/m2 BKN
07:45 7.8 °F /  -13.4 °C 6.1 °F /  -14.4 °C 995.1 in /  33694.1 hPa Calm     89 % 0.0 in /  0 mm 26.0 W/m2 BKN
07:50 7.7 °F /  -13.5 °C 5.9 °F /  -14.5 °C 995.1 in /  33694.1 hPa Calm     89 % 0.0 in /  0 mm 28.0 W/m2 BKN
07:55 7.5 °F /  -13.6 °C 5.8 °F /  -14.6 °C 995.1 in /  33694.1 hPa Calm     89 % 0.0 in /  0 mm 35.0 W/m2 BKN
08:00 7.4 °F /  -13.7 °C 5.7 °F /  -14.6 °C 995.1 in /  33694.1 hPa Calm     89 % 0.0 in /  0 mm 42.0 W/m2 BKN
08:05 7.4 °F /  -13.7 °C 5.7 °F /  -14.6 °C 995.1 in /  33694.1 hPa Calm     89 % 0.0 in /  0 mm 42.0 W/m2 BKN
08:10 7.5 °F /  -13.6 °C 5.9 °F /  -14.5 °C 995.1 in /  33694.1 hPa Calm     90 % 0.0 in /  0 mm 46.0 W/m2 SCT
08:15 7.6 °F /  -13.6 °C 6.0 °F /  -14.4 °C 995.1 in /  33694.1 hPa Calm     90 % 0.0 in /  0 mm 51.0 W/m2 SCT
08:20 7.6 °F /  -13.6 °C 6.0 °F /  -14.4 °C 994.8 in /  33683.9 hPa Calm     90 % 0.0 in /  0 mm 51.0 W/m2 SCT
08:25 7.7 °F /  -13.5 °C 6.1 °F /  -14.4 °C 994.8 in /  33683.9 hPa Calm     90 % 0.0 in /  0 mm 51.0 W/m2 SCT
08:30 7.8 °F /  -13.4 °C 6.3 °F /  -14.3 °C 994.8 in /  33683.9 hPa NW 1.9 mph /  3.1 km/h   90 % 0.0 in /  0 mm 53.0 W/m2 SCT
08:35 7.9 °F /  -13.4 °C 6.3 °F /  -14.3 °C 994.8 in /  33683.9 hPa Calm     90 % 0.0 in /  0 mm 60.0 W/m2 SCT
08:40 8.1 °F /  -13.3 °C 6.6 °F /  -14.1 °C 994.8 in /  33683.9 hPa Calm     90 % 0.0 in /  0 mm 100.0 W/m2 SCT
08:45 8.3 °F /  -13.2 °C 6.6 °F /  -14.1 °C 994.8 in /  33683.9 hPa Calm     89 % 0.0 in /  0 mm 65.0 W/m2 FEW
08:50 8.5 °F /  -13.1 °C 6.8 °F /  -14 °C 994.8 in /  33683.9 hPa SSW 3.7 mph /  6 km/h 3.7 mph /  6 km/h 89 % 0.0 in /  0 mm 79.0 W/m2 FEW
08:55 8.7 °F /  -12.9 °C 6.8 °F /  -14 °C 994.5 in /  33673.8 hPa ENE 4.8 mph /  7.7 km/h 4.8 mph /  7.7 km/h 88 % 0.0 in /  0 mm 104.0 W/m2 FEW
09:00 8.9 °F /  -12.8 °C 6.8 °F /  -14 °C 994.5 in /  33673.8 hPa Calm     87 % 0.0 in /  0 mm 141.0 W/m2 CLR
09:05 9.3 °F /  -12.6 °C 7.3 °F /  -13.7 °C 994.5 in /  33673.8 hPa Calm     87 % 0.0 in /  0 mm 155.0 W/m2 CLR
09:10 9.7 °F /  -12.4 °C 7.3 °F /  -13.7 °C 994.5 in /  33673.8 hPa Calm     85 % 0.0 in /  0 mm 163.0 W/m2 CLR
09:16 10.1 °F /  -12.2 °C 7.6 °F /  -13.6 °C 994.5 in /  33673.8 hPa Calm     84 % 0.0 in /  0 mm 195.0 W/m2 CLR
09:17 10.2 °F /  -12.1 °C 7.6 °F /  -13.6 °C 994.5 in /  33673.8 hPa Calm     84 % 0.0 in /  0 mm 206.0 W/m2 CLR
09:22 10.3 °F /  -12.1 °C 7.7 °F /  -13.5 °C 994.5 in /  33673.8 hPa Calm     84 % 0.0 in /  0 mm 207.0 W/m2 CLR
09:27 10.3 °F /  -12.1 °C 7.7 °F /  -13.5 °C 994.1 in /  33660.2 hPa Calm     84 % 0.0 in /  0 mm 186.0 W/m2 CLR
09:31 10.4 °F /  -12 °C 7.8 °F /  -13.4 °C 994.1 in /  33660.2 hPa Calm     84 % 0.0 in /  0 mm 130.0 W/m2 CLR
09:36 10.4 °F /  -12 °C 7.7 °F /  -13.5 °C 994.1 in /  33660.2 hPa Calm     83 % 0.0 in /  0 mm 98.0 W/m2 CLR
09:41 10.5 °F /  -11.9 °C 7.7 °F /  -13.5 °C 994.1 in /  33660.2 hPa Calm     83 % 0.0 in /  0 mm 91.0 W/m2 CLR
09:46 10.5 °F /  -11.9 °C 7.7 °F /  -13.5 °C 994.1 in /  33660.2 hPa Calm     83 % 0.0 in /  0 mm 91.0 W/m2 CLR
09:48 10.5 °F /  -11.9 °C 7.9 °F /  -13.4 °C 993.8 in /  33650.1 hPa Calm     84 % 0.0 in /  0 mm 93.0 W/m2 CLR
09:53 10.5 °F /  -11.9 °C 7.9 °F /  -13.4 °C 993.8 in /  33650.1 hPa Calm     84 % 0.0 in /  0 mm 97.0 W/m2 CLR
09:58 10.5 °F /  -11.9 °C 7.9 °F /  -13.4 °C 993.8 in /  33650.1 hPa Calm     84 % 0.0 in /  0 mm 98.0 W/m2 CLR
10:03 10.6 °F /  -11.9 °C 8.0 °F /  -13.3 °C 993.8 in /  33650.1 hPa Calm     84 % 0.0 in /  0 mm 104.0 W/m2 CLR
10:08 10.7 °F /  -11.8 °C 7.9 °F /  -13.4 °C 993.8 in /  33650.1 hPa NE 1.9 mph /  3.1 km/h   83 % 0.0 in /  0 mm 109.0 W/m2 CLR
10:13 10.7 °F /  -11.8 °C 7.9 °F /  -13.4 °C 993.8 in /  33650.1 hPa Calm     83 % 0.0 in /  0 mm 114.0 W/m2 CLR
10:18 10.8 °F /  -11.8 °C 8.2 °F /  -13.2 °C 993.8 in /  33650.1 hPa Calm     84 % 0.0 in /  0 mm 125.0 W/m2 CLR
10:21 10.9 °F /  -11.7 °C 8.3 °F /  -13.2 °C 993.8 in /  33650.1 hPa Calm     84 % 0.0 in /  0 mm 132.0 W/m2 CLR
10:26 11.0 °F /  -11.7 °C 8.4 °F /  -13.1 °C 993.8 in /  33650.1 hPa Calm     84 % 0.0 in /  0 mm 146.0 W/m2 CLR
10:31 11.1 °F /  -11.6 °C 8.3 °F /  -13.2 °C 993.8 in /  33650.1 hPa Calm     83 % 0.0 in /  0 mm 171.0 W/m2 CLR
10:36 11.3 °F /  -11.5 °C 8.5 °F /  -13.1 °C 993.5 in /  33639.9 hPa Calm     83 % 0.0 in /  0 mm 243.0 W/m2 CLR
10:39 11.4 °F /  -11.4 °C 8.7 °F /  -12.9 °C 993.8 in /  33650.1 hPa ENE 5.6 mph /  9 km/h 5.6 mph /  9 km/h 83 % 0.0 in /  0 mm 262.0 W/m2 CLR
10:41 11.6 °F /  -11.3 °C 8.8 °F /  -12.9 °C 993.8 in /  33650.1 hPa ENE 3.7 mph /  6 km/h   83 % 0.0 in /  0 mm 265.0 W/m2 CLR
10:46 11.8 °F /  -11.2 °C 8.8 °F /  -12.9 °C 993.8 in /  33650.1 hPa Calm     82 % 0.0 in /  0 mm 272.0 W/m2 CLR
10:51 12.1 °F /  -11.1 °C 9.1 °F /  -12.7 °C 993.5 in /  33639.9 hPa Calm     82 % 0.0 in /  0 mm 462.0 W/m2 CLR
10:56 12.4 °F /  -10.9 °C 9.4 °F /  -12.6 °C 993.5 in /  33639.9 hPa Calm     82 % 0.0 in /  0 mm 401.0 W/m2 CLR
11:01 12.9 °F /  -10.6 °C 9.5 °F /  -12.5 °C 993.1 in /  33626.4 hPa Calm     80 % 0.0 in /  0 mm 308.0 W/m2 CLR
11:06 13.3 °F /  -10.4 °C 9.6 °F /  -12.4 °C 993.1 in /  33626.4 hPa SSE 5.6 mph /  9 km/h 5.6 mph /  9 km/h 78 % 0.0 in /  0 mm 459.0 W/m2 CLR
11:11 14.1 °F /  -9.9 °C 9.5 °F /  -12.5 °C 993.1 in /  33626.4 hPa ESE 9.3 mph /  15 km/h 9.3 mph /  15 km/h 74 % 0.0 in /  0 mm 512.0 W/m2 CLR
11:16 14.6 °F /  -9.7 °C 9.6 °F /  -12.4 °C 992.8 in /  33616.2 hPa South 14.8 mph /  23.8 km/h 14.8 mph /  23.8 km/h 72 % 0.0 in /  0 mm 320.0 W/m2 CLR
11:21 14.9 °F /  -9.5 °C 9.5 °F /  -12.5 °C 992.8 in /  33616.2 hPa ESE 14.8 mph /  23.8 km/h 14.8 mph /  23.8 km/h 70 % 0.0 in /  0 mm 308.0 W/m2 CLR
11:26 15.1 °F /  -9.4 °C 9.4 °F /  -12.6 °C 992.8 in /  33616.2 hPa ESE 13.0 mph /  20.9 km/h 13.0 mph /  20.9 km/h 69 % 0.0 in /  0 mm 399.0 W/m2 CLR
11:31 15.2 °F /  -9.3 °C 9.6 °F /  -12.4 °C 992.8 in /  33616.2 hPa SSW 16.7 mph /  26.9 km/h 16.7 mph /  26.9 km/h 69 % 0.0 in /  0 mm 309.0 W/m2 CLR
11:36 15.3 °F /  -9.3 °C 9.2 °F /  -12.7 °C 992.8 in /  33616.2 hPa SSW 18.5 mph /  29.8 km/h 18.5 mph /  29.8 km/h 67 % 0.0 in /  0 mm 244.0 W/m2 CLR
11:41 15.1 °F /  -9.4 °C 9.2 °F /  -12.7 °C 992.8 in /  33616.2 hPa SSE 16.7 mph /  26.9 km/h 16.7 mph /  26.9 km/h 68 % 0.0 in /  0 mm 287.0 W/m2 CLR
11:46 15.1 °F /  -9.4 °C 9.6 °F /  -12.4 °C 992.4 in /  33602.7 hPa SSE 13.0 mph /  20.9 km/h 13.0 mph /  20.9 km/h 70 % 0.0 in /  0 mm 320.0 W/m2 CLR
11:51 15.2 °F /  -9.3 °C 9.9 °F /  -12.3 °C 992.4 in /  33602.7 hPa ESE 9.7 mph /  15.6 km/h 9.7 mph /  15.6 km/h 71 % 0.0 in /  0 mm 388.0 W/m2 CLR
11:56 15.7 °F /  -9.1 °C 8.4 °F /  -13.1 °C 992.1 in /  33592.5 hPa SW 27.8 mph /  44.7 km/h 27.8 mph /  44.7 km/h 62 % 0.0 in /  0 mm 485.0 W/m2 CLR
12:01 16.7 °F /  -8.5 °C 8.9 °F /  -12.8 °C 992.1 in /  33592.5 hPa WSW 29.6 mph /  47.6 km/h 29.6 mph /  47.6 km/h 60 % 0.0 in /  0 mm 729.0 W/m2 CLR
12:06 17.1 °F /  -8.3 °C 8.4 °F /  -13.1 °C 992.1 in /  33592.5 hPa ESE 25.9 mph /  41.7 km/h 25.9 mph /  41.7 km/h 57 % 0.0 in /  0 mm 446.0 W/m2 CLR
12:11 17.4 °F /  -8.1 °C 8.3 °F /  -13.2 °C 991.8 in /  33582.3 hPa West 27.8 mph /  44.7 km/h 27.8 mph /  44.7 km/h 55 % 0.0 in /  0 mm 705.0 W/m2 CLR
12:16 17.6 °F /  -8 °C 8.7 °F /  -12.9 °C 991.8 in /  33582.3 hPa ESE 16.7 mph /  26.9 km/h 16.7 mph /  26.9 km/h 56 % 0.0 in /  0 mm 635.0 W/m2 CLR
12:21 17.3 °F /  -8.2 °C 8.7 °F /  -12.9 °C 991.8 in /  33582.3 hPa ESE 13.0 mph /  20.9 km/h 13.0 mph /  20.9 km/h 57 % 0.0 in /  0 mm 253.0 W/m2 CLR
12:26 16.7 °F /  -8.5 °C 9.7 °F /  -12.4 °C 991.8 in /  33582.3 hPa ESE 17.7 mph /  28.5 km/h 17.7 mph /  28.5 km/h 63 % 0.0 in /  0 mm 230.0 W/m2 CLR
12:31 15.7 °F /  -9.1 °C 9.3 °F /  -12.6 °C 991.8 in /  33582.3 hPa SSW 16.7 mph /  26.9 km/h 16.7 mph /  26.9 km/h 66 % 0.0 in /  0 mm 258.0 W/m2 CLR
12:36 15.4 °F /  -9.2 °C 9.5 °F /  -12.5 °C 991.8 in /  33582.3 hPa South 14.8 mph /  23.8 km/h 14.8 mph /  23.8 km/h 68 % 0.0 in /  0 mm 227.0 W/m2 CLR
12:41 15.0 °F /  -9.4 °C 9.6 °F /  -12.4 °C 991.8 in /  33582.3 hPa ESE 18.5 mph /  29.8 km/h 18.5 mph /  29.8 km/h 70 % 0.0 in /  0 mm 244.0 W/m2 CLR
12:46 14.3 °F /  -9.8 °C 9.3 °F /  -12.6 °C 991.8 in /  33582.3 hPa South 18.5 mph /  29.8 km/h 18.5 mph /  29.8 km/h 72 % 0.0 in /  0 mm 223.0 W/m2 CLR
12:51 14.1 °F /  -9.9 °C 9.3 °F /  -12.6 °C 991.8 in /  33582.3 hPa ESE 13.0 mph /  20.9 km/h 13.0 mph /  20.9 km/h 73 % 0.0 in /  0 mm 185.0 W/m2 CLR
12:56 13.8 °F /  -10.1 °C 9.3 °F /  -12.6 °C 991.8 in /  33582.3 hPa SSE 14.8 mph /  23.8 km/h 14.8 mph /  23.8 km/h 74 % 0.0 in /  0 mm 179.0 W/m2 CLR
13:01 13.7 °F /  -10.2 °C 9.4 °F /  -12.6 °C 991.8 in /  33582.3 hPa ESE 14.8 mph /  23.8 km/h 14.8 mph /  23.8 km/h 75 % 0.0 in /  0 mm 174.0 W/m2 CLR
13:06 13.4 °F /  -10.3 °C 9.1 °F /  -12.7 °C 991.8 in /  33582.3 hPa SW 18.5 mph /  29.8 km/h 18.5 mph /  29.8 km/h 75 % 0.0 in /  0 mm 162.0 W/m2 CLR
13:11 13.2 °F /  -10.4 °C 8.9 °F /  -12.8 °C 991.8 in /  33582.3 hPa SW 18.5 mph /  29.8 km/h 18.5 mph /  29.8 km/h 75 % 0.0 in /  0 mm 141.0 W/m2 CLR
13:16 12.9 °F /  -10.6 °C 8.8 °F /  -12.9 °C 991.8 in /  33582.3 hPa ESE 20.4 mph /  32.8 km/h 20.4 mph /  32.8 km/h 76 % 0.0 in /  0 mm 120.0 W/m2 CLR
13:22 12.6 °F /  -10.8 °C 8.9 °F /  -12.8 °C 991.4 in /  33568.8 hPa South 13.0 mph /  20.9 km/h 13.0 mph /  20.9 km/h 78 % 0.0 in /  0 mm 102.0 W/m2 CLR
13:27 12.4 °F /  -10.9 °C 8.7 °F /  -12.9 °C 991.4 in /  33568.8 hPa South 18.5 mph /  29.8 km/h 18.5 mph /  29.8 km/h 78 % 0.0 in /  0 mm 114.0 W/m2 CLR
13:32 12.5 °F /  -10.8 °C 8.8 °F /  -12.9 °C 991.1 in /  33558.6 hPa South 7.4 mph /  11.9 km/h 7.4 mph /  11.9 km/h 78 % 0.0 in /  0 mm 107.0 W/m2 CLR
13:37 12.7 °F /  -10.7 °C 8.9 °F /  -12.8 °C 991.1 in /  33558.6 hPa SSE 5.6 mph /  9 km/h 5.6 mph /  9 km/h 78 % 0.0 in /  0 mm 97.0 W/m2 CLR
13:42 13.0 °F /  -10.6 °C 8.7 °F /  -12.9 °C 991.1 in /  33558.6 hPa WSW 17.7 mph /  28.5 km/h 17.7 mph /  28.5 km/h 75 % 0.0 in /  0 mm 91.0 W/m2 CLR
13:47 14.7 °F /  -9.6 °C 8.2 °F /  -13.2 °C 991.1 in /  33558.6 hPa SW 24.1 mph /  38.8 km/h 24.1 mph /  38.8 km/h 65 % 0.0 in /  0 mm 97.0 W/m2 CLR
13:52 15.6 °F /  -9.1 °C 8.3 °F /  -13.2 °C 990.7 in /  33545.1 hPa ESE 25.9 mph /  41.7 km/h 25.9 mph /  41.7 km/h 62 % 0.0 in /  0 mm 100.0 W/m2 CLR
13:57 14.1 °F /  -9.9 °C 8.7 °F /  -12.9 °C 990.7 in /  33545.1 hPa ESE 13.0 mph /  20.9 km/h 13.0 mph /  20.9 km/h 70 % 0.0 in /  0 mm 91.0 W/m2 CLR
14:02 13.4 °F /  -10.3 °C 8.7 °F /  -12.9 °C 990.7 in /  33545.1 hPa SSE 14.8 mph /  23.8 km/h 14.8 mph /  23.8 km/h 73 % 0.0 in /  0 mm 104.0 W/m2 CLR
14:07 12.8 °F /  -10.7 °C 8.7 °F /  -12.9 °C 990.7 in /  33545.1 hPa ESE 20.4 mph /  32.8 km/h 20.4 mph /  32.8 km/h 76 % 0.0 in /  0 mm 130.0 W/m2 CLR
14:12 12.5 °F /  -10.8 °C 8.6 °F /  -13 °C 990.7 in /  33545.1 hPa ESE 19.3 mph /  31.1 km/h 19.3 mph /  31.1 km/h 77 % 0.0 in /  0 mm 151.0 W/m2 CLR
14:17 12.5 °F /  -10.8 °C 8.6 °F /  -13 °C 990.7 in /  33545.1 hPa ESE 18.5 mph /  29.8 km/h 18.5 mph /  29.8 km/h 77 % 0.0 in /  0 mm 137.0 W/m2 CLR
14:22 12.6 °F /  -10.8 °C 8.5 °F /  -13.1 °C 990.4 in /  33534.9 hPa SW 14.8 mph /  23.8 km/h 14.8 mph /  23.8 km/h 76 % 0.0 in /  0 mm 123.0 W/m2 CLR
14:27 13.1 °F /  -10.5 °C 8.5 °F /  -13.1 °C 990.4 in /  33534.9 hPa ESE 9.3 mph /  15 km/h 9.3 mph /  15 km/h 74 % 0.0 in /  0 mm 121.0 W/m2 CLR
14:32 12.9 °F /  -10.6 °C 8.4 °F /  -13.1 °C 990.4 in /  33534.9 hPa ESE 20.4 mph /  32.8 km/h 20.4 mph /  32.8 km/h 74 % 0.0 in /  0 mm 128.0 W/m2 CLR
14:37 12.2 °F /  -11 °C 8.3 °F /  -13.2 °C 990.4 in /  33534.9 hPa ESE 13.0 mph /  20.9 km/h 13.0 mph /  20.9 km/h 77 % 0.0 in /  0 mm 178.0 W/m2 CLR
14:42 11.9 °F /  -11.2 °C 8.3 °F /  -13.2 °C 990.4 in /  33534.9 hPa ESE 18.5 mph /  29.8 km/h 18.5 mph /  29.8 km/h 79 % 0.0 in /  0 mm 243.0 W/m2 CLR
14:47 11.7 °F /  -11.3 °C 8.3 °F /  -13.2 °C 990.4 in /  33534.9 hPa ESE 14.8 mph /  23.8 km/h 14.8 mph /  23.8 km/h 80 % 0.0 in /  0 mm 267.0 W/m2 CLR
14:52 11.8 °F /  -11.2 °C 8.4 °F /  -13.1 °C 990.1 in /  33524.8 hPa ESE 14.8 mph /  23.8 km/h 14.8 mph /  23.8 km/h 80 % 0.0 in /  0 mm 264.0 W/m2 CLR
14:57 11.9 °F /  -11.2 °C 8.6 °F /  -13 °C 990.1 in /  33524.8 hPa SSW 13.0 mph /  20.9 km/h 13.0 mph /  20.9 km/h 80 % 0.0 in /  0 mm 276.0 W/m2 CLR
15:02 12.3 °F /  -10.9 °C 8.8 °F /  -12.9 °C 990.1 in /  33524.8 hPa SSW 16.7 mph /  26.9 km/h 16.7 mph /  26.9 km/h 79 % 0.0 in /  0 mm 276.0 W/m2 CLR
15:07 12.7 °F /  -10.7 °C 8.9 °F /  -12.8 °C 989.7 in /  33511.2 hPa ESE 9.3 mph /  15 km/h 9.3 mph /  15 km/h 78 % 0.0 in /  0 mm 248.0 W/m2 CLR
15:12 13.0 °F /  -10.6 °C 9.3 °F /  -12.6 °C 989.7 in /  33511.2 hPa ESE 5.6 mph /  9 km/h 5.6 mph /  9 km/h 78 % 0.0 in /  0 mm 239.0 W/m2 CLR
15:17 13.5 °F /  -10.3 °C 9.2 °F /  -12.7 °C 989.7 in /  33511.2 hPa ESE 27.8 mph /  44.7 km/h 27.8 mph /  44.7 km/h 75 % 0.0 in /  0 mm 250.0 W/m2 CLR
15:22 13.4 °F /  -10.3 °C 8.9 °F /  -12.8 °C 989.7 in /  33511.2 hPa ESE 18.5 mph /  29.8 km/h 18.5 mph /  29.8 km/h 74 % 0.0 in /  0 mm 207.0 W/m2 CLR
15:27 13.3 °F /  -10.4 °C 9.1 °F /  -12.7 °C 989.7 in /  33511.2 hPa ENE 16.7 mph /  26.9 km/h 16.7 mph /  26.9 km/h 76 % 0.0 in /  0 mm 171.0 W/m2 CLR
15:32 13.4 °F /  -10.3 °C 9.3 °F /  -12.6 °C 989.4 in /  33501.1 hPa North 18.5 mph /  29.8 km/h 18.5 mph /  29.8 km/h 76 % 0.0 in /  0 mm 158.0 W/m2 CLR
15:37 14.1 °F /  -9.9 °C 9.3 °F /  -12.6 °C 989.1 in /  33490.9 hPa West 14.8 mph /  23.8 km/h 14.8 mph /  23.8 km/h 73 % 0.0 in /  0 mm 165.0 W/m2 CLR
15:42 15.0 °F /  -9.4 °C 9.3 °F /  -12.6 °C 989.1 in /  33490.9 hPa WSW 5.6 mph /  9 km/h 5.6 mph /  9 km/h 69 % 0.0 in /  0 mm 176.0 W/m2 CLR
15:47 15.6 °F /  -9.1 °C 9.2 °F /  -12.7 °C 989.4 in /  33501.1 hPa WSW 20.4 mph /  32.8 km/h 20.4 mph /  32.8 km/h 66 % 0.0 in /  0 mm 197.0 W/m2 CLR
15:52 15.8 °F /  -9 °C 9.0 °F /  -12.8 °C 989.1 in /  33490.9 hPa SW 31.5 mph /  50.7 km/h 31.5 mph /  50.7 km/h 64 % 0.0 in /  0 mm 244.0 W/m2 CLR
15:57 15.8 °F /  -9 °C 9.0 °F /  -12.8 °C 988.7 in /  33477.4 hPa WSW 33.3 mph /  53.6 km/h 33.3 mph /  53.6 km/h 64 % 0.0 in /  0 mm 229.0 W/m2 CLR
16:02 15.8 °F /  -9 °C 9.4 °F /  -12.6 °C 989.1 in /  33490.9 hPa ESE 14.8 mph /  23.8 km/h 14.8 mph /  23.8 km/h 66 % 0.0 in /  0 mm 178.0 W/m2 CLR
16:07 15.7 °F /  -9.1 °C 9.3 °F /  -12.6 °C 988.7 in /  33477.4 hPa SW 18.5 mph /  29.8 km/h 18.5 mph /  29.8 km/h 66 % 0.0 in /  0 mm 174.0 W/m2 CLR
16:12 15.6 °F /  -9.1 °C 9.2 °F /  -12.7 °C 989.1 in /  33490.9 hPa West 11.1 mph /  17.9 km/h 11.1 mph /  17.9 km/h 66 % 0.0 in /  0 mm 142.0 W/m2 CLR
16:17 15.4 °F /  -9.2 °C 9.3 °F /  -12.6 °C 989.1 in /  33490.9 hPa SW 19.3 mph /  31.1 km/h 19.3 mph /  31.1 km/h 67 % 0.0 in /  0 mm 132.0 W/m2 CLR
16:22 15.2 °F /  -9.3 °C 9.1 °F /  -12.7 °C 989.1 in /  33490.9 hPa SW 25.9 mph /  41.7 km/h 25.9 mph /  41.7 km/h 67 % 0.0 in /  0 mm 104.0 W/m2 CLR
16:27 14.9 °F /  -9.5 °C 9.1 °F /  -12.7 °C 988.7 in /  33477.4 hPa SSW 25.7 mph /  41.4 km/h 25.7 mph /  41.4 km/h 68 % 0.0 in /  0 mm 111.0 W/m2 CLR
16:32 14.8 °F /  -9.6 °C 9.2 °F /  -12.7 °C 988.7 in /  33477.4 hPa WSW 24.1 mph /  38.8 km/h 24.1 mph /  38.8 km/h 69 % 0.0 in /  0 mm 146.0 W/m2 CLR
16:37 14.7 °F /  -9.6 °C 9.1 °F /  -12.7 °C 988.4 in /  33467.2 hPa SW 24.1 mph /  38.8 km/h 24.1 mph /  38.8 km/h 69 % 0.0 in /  0 mm 142.0 W/m2 CLR
16:42 14.6 °F /  -9.7 °C 8.9 °F /  -12.8 °C 988.7 in /  33477.4 hPa WSW 24.1 mph /  38.8 km/h 24.1 mph /  38.8 km/h 69 % 0.0 in /  0 mm 127.0 W/m2 CLR
16:47 14.6 °F /  -9.7 °C 8.9 °F /  -12.8 °C 988.7 in /  33477.4 hPa WSW 24.1 mph /  38.8 km/h 24.1 mph /  38.8 km/h 69 % 0.0 in /  0 mm 141.0 W/m2 CLR
16:52 14.6 °F /  -9.7 °C 8.9 °F /  -12.8 °C 988.7 in /  33477.4 hPa WSW 20.4 mph /  32.8 km/h 20.4 mph /  32.8 km/h 69 % 0.0 in /  0 mm 141.0 W/m2 CLR
16:57 14.6 °F /  -9.7 °C 8.9 °F /  -12.8 °C 988.4 in /  33467.2 hPa SW 31.5 mph /  50.7 km/h 31.5 mph /  50.7 km/h 69 % 0.0 in /  0 mm 132.0 W/m2 CLR
17:02 14.6 °F /  -9.7 °C 8.9 °F /  -12.8 °C 988.4 in /  33467.2 hPa WSW 27.4 mph /  44.1 km/h 27.4 mph /  44.1 km/h 69 % 0.0 in /  0 mm 128.0 W/m2 CLR
17:07 14.4 °F /  -9.8 °C 8.8 °F /  -12.9 °C 988.4 in /  33467.2 hPa WSW 32.2 mph /  51.8 km/h 32.2 mph /  51.8 km/h 69 % 0.0 in /  0 mm 107.0 W/m2 CLR
17:12 14.3 °F /  -9.8 °C 8.7 °F /  -12.9 °C 988.4 in /  33467.2 hPa SW 27.8 mph /  44.7 km/h 27.8 mph /  44.7 km/h 69 % 0.0 in /  0 mm 104.0 W/m2 CLR
17:17 14.2 °F /  -9.9 °C 8.6 °F /  -13 °C 988.4 in /  33467.2 hPa WSW 27.8 mph /  44.7 km/h 27.8 mph /  44.7 km/h 69 % 0.0 in /  0 mm 95.0 W/m2 CLR
17:22 14.2 °F /  -9.9 °C 8.8 °F /  -12.9 °C 988.0 in /  33453.7 hPa West 35.2 mph /  56.6 km/h 35.2 mph /  56.6 km/h 70 % 0.0 in /  0 mm 83.0 W/m2 CLR
17:27 14.1 °F /  -9.9 °C 8.7 °F /  -12.9 °C 988.0 in /  33453.7 hPa WSW 35.4 mph /  57 km/h 35.4 mph /  57 km/h 70 % 0.0 in /  0 mm 67.0 W/m2 FEW
17:32 14.0 °F /  -10 °C 8.6 °F /  -13 °C 988.0 in /  33453.7 hPa ESE 44.4 mph /  71.5 km/h 44.4 mph /  71.5 km/h 70 % 0.0 in /  0 mm 58.0 W/m2 FEW
17:37 13.9 °F /  -10.1 °C 8.6 °F /  -13 °C 988.0 in /  33453.7 hPa WSW 29.6 mph /  47.6 km/h 29.6 mph /  47.6 km/h 70 % 0.0 in /  0 mm 44.0 W/m2 SCT
17:42 13.9 °F /  -10.1 °C 8.6 °F /  -13 °C 988.0 in /  33453.7 hPa WSW 33.3 mph /  53.6 km/h 33.3 mph /  53.6 km/h 70 % 0.0 in /  0 mm 33.0 W/m2 SCT
17:47 13.9 °F /  -10.1 °C 8.6 °F /  -13 °C 988.0 in /  33453.7 hPa SW 33.3 mph /  53.6 km/h 33.3 mph /  53.6 km/h 70 % 0.0 in /  0 mm 32.0 W/m2 BKN
17:52 13.8 °F /  -10.1 °C 8.6 °F /  -13 °C 987.7 in /  33443.5 hPa SW 24.1 mph /  38.8 km/h 24.1 mph /  38.8 km/h 71 % 0.0 in /  0 mm 83.0 W/m2 SCT
17:57 13.7 °F /  -10.2 °C 8.5 °F /  -13.1 °C 987.7 in /  33443.5 hPa West 33.3 mph /  53.6 km/h 33.3 mph /  53.6 km/h 71 % 0.0 in /  0 mm 42.0 W/m2 SCT
18:02 13.6 °F /  -10.2 °C 8.7 °F /  -12.9 °C 987.7 in /  33443.5 hPa WSW 24.1 mph /  38.8 km/h 24.1 mph /  38.8 km/h 72 % 0.0 in /  0 mm 37.0 W/m2 BKN
18:07 13.6 °F /  -10.2 °C 8.6 °F /  -13 °C 987.7 in /  33443.5 hPa SW 27.4 mph /  44.1 km/h 27.4 mph /  44.1 km/h 72 % 0.0 in /  0 mm 35.0 W/m2 BKN
18:12 13.6 °F /  -10.2 °C 8.4 °F /  -13.1 °C 987.7 in /  33443.5 hPa West 33.3 mph /  53.6 km/h 33.3 mph /  53.6 km/h 71 % 0.0 in /  0 mm 35.0 W/m2 BKN
18:17 13.7 °F /  -10.2 °C 8.5 °F /  -13.1 °C 988.0 in /  33453.7 hPa WSW 22.2 mph /  35.7 km/h 22.2 mph /  35.7 km/h 71 % 0.0 in /  0 mm 39.0 W/m2 BKN
18:22 13.7 °F /  -10.2 °C 8.6 °F /  -13 °C 988.0 in /  33453.7 hPa WSW 31.5 mph /  50.7 km/h 31.5 mph /  50.7 km/h 71 % 0.0 in /  0 mm 37.0 W/m2 BKN
18:27 13.8 °F /  -10.1 °C 8.7 °F /  -12.9 °C 988.0 in /  33453.7 hPa WSW 24.1 mph /  38.8 km/h 24.1 mph /  38.8 km/h 71 % 0.0 in /  0 mm 26.0 W/m2 BKN
18:32 13.8 °F /  -10.1 °C 8.7 °F /  -12.9 °C 988.0 in /  33453.7 hPa WSW 27.8 mph /  44.7 km/h 27.8 mph /  44.7 km/h 71 % 0.0 in /  0 mm 14.0 W/m2 BKN
18:37 13.9 °F /  -10.1 °C 8.7 °F /  -12.9 °C 988.0 in /  33453.7 hPa WSW 19.3 mph /  31.1 km/h 19.3 mph /  31.1 km/h 71 % 0.0 in /  0 mm 14.0 W/m2 BKN
18:42 13.9 °F /  -10.1 °C 8.6 °F /  -13 °C 988.0 in /  33453.7 hPa WSW 18.5 mph /  29.8 km/h 18.5 mph /  29.8 km/h 70 % 0.0 in /  0 mm 11.0 W/m2 BKN
18:47 13.9 °F /  -10.1 °C 8.6 °F /  -13 °C 988.4 in /  33467.2 hPa WSW 20.4 mph /  32.8 km/h 20.4 mph /  32.8 km/h 70 % 0.0 in /  0 mm 0.0 W/m2 OVC
18:52 13.9 °F /  -10.1 °C 8.6 °F /  -13 °C 988.4 in /  33467.2 hPa WSW 20.4 mph /  32.8 km/h 20.4 mph /  32.8 km/h 70 % 0.0 in /  0 mm 0.0 W/m2 OVC
18:57 14.0 °F /  -10 °C 8.6 °F /  -13 °C 988.4 in /  33467.2 hPa WSW 24.1 mph /  38.8 km/h 24.1 mph /  38.8 km/h 70 % 0.0 in /  0 mm 0.0 W/m2 OVC
19:02 14.0 °F /  -10 °C 8.6 °F /  -13 °C 988.4 in /  33467.2 hPa WSW 18.5 mph /  29.8 km/h 18.5 mph /  29.8 km/h 70 % 0.0 in /  0 mm 0.0 W/m2 CLR
19:07 14.0 °F /  -10 °C 8.6 °F /  -13 °C 988.4 in /  33467.2 hPa WSW 20.4 mph /  32.8 km/h 20.4 mph /  32.8 km/h 70 % 0.0 in /  0 mm 0.0 W/m2 CLR
19:12 14.1 °F /  -9.9 °C 8.5 °F /  -13.1 °C 988.4 in /  33467.2 hPa West 27.8 mph /  44.7 km/h 27.8 mph /  44.7 km/h 69 % 0.0 in /  0 mm 0.0 W/m2 CLR
19:17 14.1 °F /  -9.9 °C 8.7 °F /  -12.9 °C 988.4 in /  33467.2 hPa WSW 22.2 mph /  35.7 km/h 22.2 mph /  35.7 km/h 70 % 0.0 in /  0 mm 0.0 W/m2 CLR
19:22 14.1 °F /  -9.9 °C 8.7 °F /  -12.9 °C 988.4 in /  33467.2 hPa WSW 25.9 mph /  41.7 km/h 25.9 mph /  41.7 km/h 70 % 0.0 in /  0 mm 0.0 W/m2 CLR
19:27 14.1 °F /  -9.9 °C 8.7 °F /  -12.9 °C 988.4 in /  33467.2 hPa SW 31.5 mph /  50.7 km/h 31.5 mph /  50.7 km/h 70 % 0.0 in /  0 mm 0.0 W/m2 CLR
19:32 14.2 °F /  -9.9 °C 8.6 °F /  -13 °C 988.4 in /  33467.2 hPa WSW 31.5 mph /  50.7 km/h 31.5 mph /  50.7 km/h 69 % 0.0 in /  0 mm 0.0 W/m2 CLR
19:37 14.2 °F /  -9.9 °C 8.6 °F /  -13 °C 988.4 in /  33467.2 hPa SW 29.0 mph /  46.7 km/h 29.0 mph /  46.7 km/h 69 % 0.0 in /  0 mm 0.0 W/m2 CLR
19:42 14.1 °F /  -9.9 °C 8.5 °F /  -13.1 °C 988.4 in /  33467.2 hPa ESE 18.5 mph /  29.8 km/h 18.5 mph /  29.8 km/h 69 % 0.0 in /  0 mm 0.0 W/m2 CLR
19:47 13.9 °F /  -10.1 °C 8.6 °F /  -13 °C 988.0 in /  33453.7 hPa SW 20.4 mph /  32.8 km/h 20.4 mph /  32.8 km/h 70 % 0.0 in /  0 mm 0.0 W/m2 CLR
19:52 13.9 °F /  -10.1 °C 8.6 °F /  -13 °C 988.4 in /  33467.2 hPa SW 20.4 mph /  32.8 km/h 20.4 mph /  32.8 km/h 70 % 0.0 in /  0 mm 0.0 W/m2 CLR
19:57 13.8 °F /  -10.1 °C 8.4 °F /  -13.1 °C 988.4 in /  33467.2 hPa WSW 20.4 mph /  32.8 km/h 20.4 mph /  32.8 km/h 70 % 0.0 in /  0 mm 0.0 W/m2 CLR
20:02 13.7 °F /  -10.2 °C 8.5 °F /  -13.1 °C 988.4 in /  33467.2 hPa WSW 14.8 mph /  23.8 km/h 14.8 mph /  23.8 km/h 71 % 0.0 in /  0 mm 0.0 W/m2 CLR
20:07 13.6 °F /  -10.2 °C 8.4 °F /  -13.1 °C 988.4 in /  33467.2 hPa WSW 16.7 mph /  26.9 km/h 16.7 mph /  26.9 km/h 71 % 0.0 in /  0 mm 0.0 W/m2 CLR
20:12 13.6 °F /  -10.2 °C 8.7 °F /  -12.9 °C 987.7 in /  33443.5 hPa ESE 18.5 mph /  29.8 km/h 18.5 mph /  29.8 km/h 72 % 0.0 in /  0 mm 0.0 W/m2 CLR
20:17 13.4 °F /  -10.3 °C 8.5 °F /  -13.1 °C 987.7 in /  33443.5 hPa WSW 14.5 mph /  23.3 km/h 14.5 mph /  23.3 km/h 72 % 0.0 in /  0 mm 0.0 W/m2 CLR
20:22 13.5 °F /  -10.3 °C 8.3 °F /  -13.2 °C 987.7 in /  33443.5 hPa WSW 18.5 mph /  29.8 km/h 18.5 mph /  29.8 km/h 71 % 0.0 in /  0 mm 0.0 W/m2 CLR
20:27 13.6 °F /  -10.2 °C 8.4 °F /  -13.1 °C 987.7 in /  33443.5 hPa WSW 13.0 mph /  20.9 km/h 13.0 mph /  20.9 km/h 71 % 0.0 in /  0 mm 0.0 W/m2 CLR
20:33 13.5 °F /  -10.3 °C 8.3 °F /  -13.2 °C 987.7 in /  33443.5 hPa WSW 3.7 mph /  6 km/h   71 % 0.0 in /  0 mm 0.0 W/m2 CLR
20:38 13.4 °F /  -10.3 °C 8.2 °F /  -13.2 °C 988.0 in /  33453.7 hPa Calm     71 % 0.0 in /  0 mm 0.0 W/m2 CLR
20:43 13.3 °F /  -10.4 °C 8.3 °F /  -13.2 °C 988.0 in /  33453.7 hPa Calm     72 % 0.0 in /  0 mm 0.0 W/m2 CLR
20:48 13.3 °F /  -10.4 °C 8.2 °F /  -13.2 °C 988.0 in /  33453.7 hPa WNW 7.4 mph /  11.9 km/h 7.4 mph /  11.9 km/h 71 % 0.0 in /  0 mm 0.0 W/m2 CLR
20:53 13.4 °F /  -10.3 °C 8.1 °F /  -13.3 °C 988.4 in /  33467.2 hPa West 11.1 mph /  17.9 km/h 11.1 mph /  17.9 km/h 70 % 0.0 in /  0 mm 0.0 W/m2 CLR
20:58 13.5 °F /  -10.3 °C 8.1 °F /  -13.3 °C 988.4 in /  33467.2 hPa West 5.6 mph /  9 km/h 5.6 mph /  9 km/h 70 % 0.0 in /  0 mm 0.0 W/m2 CLR
21:03 13.4 °F /  -10.3 °C 8.0 °F /  -13.3 °C 988.7 in /  33477.4 hPa Calm     70 % 0.0 in /  0 mm 0.0 W/m2 CLR
21:08 13.5 °F /  -10.3 °C 7.9 °F /  -13.4 °C 989.1 in /  33490.9 hPa NW 18.5 mph /  29.8 km/h 18.5 mph /  29.8 km/h 69 % 0.0 in /  0 mm 0.0 W/m2 CLR
21:13 13.7 °F /  -10.2 °C 8.1 °F /  -13.3 °C 989.4 in /  33501.1 hPa NW 32.2 mph /  51.8 km/h 32.2 mph /  51.8 km/h 69 % 0.0 in /  0 mm 0.0 W/m2 CLR
21:18 13.9 °F /  -10.1 °C 7.7 °F /  -13.5 °C 989.4 in /  33501.1 hPa NW 40.7 mph /  65.5 km/h 40.7 mph /  65.5 km/h 66 % 0.0 in /  0 mm 0.0 W/m2 CLR
21:23 14.1 °F /  -9.9 °C 7.6 °F /  -13.6 °C 989.4 in /  33501.1 hPa WNW 20.4 mph /  32.8 km/h 20.4 mph /  32.8 km/h 65 % 0.0 in /  0 mm 0.0 W/m2 CLR
21:28 13.8 °F /  -10.1 °C 7.6 °F /  -13.6 °C 989.4 in /  33501.1 hPa WNW 14.8 mph /  23.8 km/h 14.8 mph /  23.8 km/h 66 % 0.0 in /  0 mm 0.0 W/m2 CLR
21:33 13.7 °F /  -10.2 °C 7.5 °F /  -13.6 °C 989.4 in /  33501.1 hPa NW 16.7 mph /  26.9 km/h 16.7 mph /  26.9 km/h 66 % 0.0 in /  0 mm 0.0 W/m2 CLR
21:38 13.7 °F /  -10.2 °C 7.3 °F /  -13.7 °C 989.4 in /  33501.1 hPa NW 16.7 mph /  26.9 km/h 16.7 mph /  26.9 km/h 65 % 0.0 in /  0 mm 0.0 W/m2 CLR
21:43 13.7 °F /  -10.2 °C 7.0 °F /  -13.9 °C 989.7 in /  33511.2 hPa NW 14.8 mph /  23.8 km/h 14.8 mph /  23.8 km/h 64 % 0.0 in /  0 mm 0.0 W/m2 CLR
21:48 13.7 °F /  -10.2 °C 6.8 °F /  -14 °C 989.7 in /  33511.2 hPa NW 22.2 mph /  35.7 km/h 22.2 mph /  35.7 km/h 63 % 0.0 in /  0 mm 0.0 W/m2 CLR
21:53 13.7 °F /  -10.2 °C 6.6 °F /  -14.1 °C 990.4 in /  33534.9 hPa NNW 22.2 mph /  35.7 km/h 22.2 mph /  35.7 km/h 62 % 0.0 in /  0 mm 0.0 W/m2 CLR
21:58 13.7 °F /  -10.2 °C 6.3 °F /  -14.3 °C 990.4 in /  33534.9 hPa NNW 27.8 mph /  44.7 km/h 27.8 mph /  44.7 km/h 61 % 0.0 in /  0 mm 0.0 W/m2 CLR
22:03 13.5 °F /  -10.3 °C 6.1 °F /  -14.4 °C 990.7 in /  33545.1 hPa NW 37.0 mph /  59.5 km/h 37.0 mph /  59.5 km/h 61 % 0.0 in /  0 mm 0.0 W/m2 CLR
22:08 13.7 °F /  -10.2 °C 5.6 °F /  -14.7 °C 990.7 in /  33545.1 hPa NW 33.3 mph /  53.6 km/h 33.3 mph /  53.6 km/h 58 % 0.0 in /  0 mm 0.0 W/m2 CLR
22:13 13.8 °F /  -10.1 °C 5.4 °F /  -14.8 °C 991.1 in /  33558.6 hPa WNW 33.3 mph /  53.6 km/h 33.3 mph /  53.6 km/h 57 % 0.0 in /  0 mm 0.0 W/m2 CLR
22:18 13.7 °F /  -10.2 °C 5.3 °F /  -14.8 °C 991.1 in /  33558.6 hPa NW 31.5 mph /  50.7 km/h 31.5 mph /  50.7 km/h 57 % 0.0 in /  0 mm 0.0 W/m2 CLR
22:23 13.7 °F /  -10.2 °C 5.1 °F /  -14.9 °C 991.1 in /  33558.6 hPa NW 29.6 mph /  47.6 km/h 29.6 mph /  47.6 km/h 56 % 0.0 in /  0 mm 0.0 W/m2 CLR
22:28 13.7 °F /  -10.2 °C 4.8 °F /  -15.1 °C 991.1 in /  33558.6 hPa NW 29.6 mph /  47.6 km/h 29.6 mph /  47.6 km/h 55 % 0.0 in /  0 mm 0.0 W/m2 CLR
22:33 13.6 °F /  -10.2 °C 4.9 °F /  -15.1 °C 991.4 in /  33568.8 hPa WNW 20.4 mph /  32.8 km/h 20.4 mph /  32.8 km/h 56 % 0.0 in /  0 mm 0.0 W/m2 CLR
22:38 13.6 °F /  -10.2 °C 4.7 °F /  -15.2 °C 991.4 in /  33568.8 hPa WNW 24.1 mph /  38.8 km/h 24.1 mph /  38.8 km/h 55 % 0.0 in /  0 mm 0.0 W/m2 CLR
22:43 13.5 °F /  -10.3 °C 4.4 °F /  -15.3 °C 991.4 in /  33568.8 hPa NW 29.6 mph /  47.6 km/h 29.6 mph /  47.6 km/h 54 % 0.0 in /  0 mm 0.0 W/m2 CLR
22:48 13.4 °F /  -10.3 °C 4.3 °F /  -15.4 °C 991.8 in /  33582.3 hPa WNW 24.1 mph /  38.8 km/h 24.1 mph /  38.8 km/h 54 % 0.0 in /  0 mm 0.0 W/m2 CLR
22:53 13.4 °F /  -10.3 °C 4.6 °F /  -15.2 °C 991.8 in /  33582.3 hPa NW 18.5 mph /  29.8 km/h 18.5 mph /  29.8 km/h 55 % 0.0 in /  0 mm 0.0 W/m2 CLR
22:58 13.3 °F /  -10.4 °C 4.5 °F /  -15.3 °C 992.1 in /  33592.5 hPa NW 37.0 mph /  59.5 km/h 37.0 mph /  59.5 km/h 55 % 0.0 in /  0 mm 0.0 W/m2 CLR
23:03 13.2 °F /  -10.4 °C 4.4 °F /  -15.3 °C 992.4 in /  33602.7 hPa NNW 68.5 mph /  110.2 km/h 68.5 mph /  110.2 km/h 55 % 0.0 in /  0 mm 0.0 W/m2 CLR
23:08 13.1 °F /  -10.5 °C 4.4 °F /  -15.3 °C 992.8 in /  33616.2 hPa NNW 40.7 mph /  65.5 km/h 40.7 mph /  65.5 km/h 56 % 0.0 in /  0 mm 0.0 W/m2 CLR
23:13 12.8 °F /  -10.7 °C 4.3 °F /  -15.4 °C 993.1 in /  33626.4 hPa NW 38.9 mph /  62.6 km/h 38.9 mph /  62.6 km/h 56 % 0.0 in /  0 mm 0.0 W/m2 CLR
23:18 12.6 °F /  -10.8 °C 4.3 °F /  -15.4 °C 993.1 in /  33626.4 hPa NW 40.7 mph /  65.5 km/h 40.7 mph /  65.5 km/h 57 % 0.0 in /  0 mm 0.0 W/m2 CLR
23:23 12.5 °F /  -10.8 °C 4.2 °F /  -15.4 °C 993.5 in /  33639.9 hPa NW 37.0 mph /  59.5 km/h 37.0 mph /  59.5 km/h 57 % 0.0 in /  0 mm 0.0 W/m2 CLR
23:28 12.3 °F /  -10.9 °C 4.0 °F /  -15.6 °C 993.5 in /  33639.9 hPa WNW 42.6 mph /  68.6 km/h 42.6 mph /  68.6 km/h 57 % 0.0 in /  0 mm 0.0 W/m2 CLR
23:33 12.2 °F /  -11 °C 3.7 °F /  -15.7 °C 993.8 in /  33650.1 hPa WNW 37.0 mph /  59.5 km/h 37.0 mph /  59.5 km/h 56 % 0.0 in /  0 mm 0.0 W/m2 CLR
23:38 12.1 °F /  -11.1 °C 3.8 °F /  -15.7 °C 993.8 in /  33650.1 hPa WNW 31.5 mph /  50.7 km/h 31.5 mph /  50.7 km/h 57 % 0.0 in /  0 mm 0.0 W/m2 CLR
23:43 11.9 °F /  -11.2 °C 3.6 °F /  -15.8 °C 993.8 in /  33650.1 hPa WNW 27.8 mph /  44.7 km/h 27.8 mph /  44.7 km/h 57 % 0.0 in /  0 mm 0.0 W/m2 CLR
23:48 11.7 °F /  -11.3 °C 3.5 °F /  -15.8 °C 993.8 in /  33650.1 hPa WNW 25.9 mph /  41.7 km/h 25.9 mph /  41.7 km/h 57 % 0.0 in /  0 mm 0.0 W/m2 CLR
23:53 11.7 °F /  -11.3 °C 3.7 °F /  -15.7 °C 994.1 in /  33660.2 hPa NW 20.4 mph /  32.8 km/h 20.4 mph /  32.8 km/h 58 % 0.0 in /  0 mm 0.0 W/m2 CLR
23:58 11.4 °F /  -11.4 °C 3.4 °F /  -15.9 °C 994.1 in /  33660.2 hPa WNW 22.2 mph /  35.7 km/h 22.2 mph /  35.7 km/h 58 % 0.0 in /  0 mm 0.0 W/m2 CLR
Lo Temps de Massalio
Compliments of Weather Underground - 1.25 mb